createdAt,value
2024-01-18T00:00:26.572Z,18.12
2024-01-18T00:01:29.020Z,20.36
2024-01-18T00:02:31.110Z,21.81
2024-01-18T00:03:33.721Z,18.83
2024-01-18T00:04:39.765Z,18.58
2024-01-18T00:05:42.089Z,19.73
2024-01-18T00:06:44.451Z,18.99
2024-01-18T00:07:46.651Z,19.88
2024-01-18T00:08:48.665Z,17.70
2024-01-18T00:09:50.897Z,19.96
2024-01-18T00:10:53.124Z,18.76
2024-01-18T00:11:55.466Z,16.15
2024-01-18T00:12:58.701Z,17.09
2024-01-18T00:14:00.750Z,22.00
2024-01-18T00:15:03.439Z,18.31
2024-01-18T00:16:06.047Z,21.39
2024-01-18T00:17:08.062Z,19.01
2024-01-18T00:18:10.366Z,19.13
2024-01-18T00:19:12.558Z,18.11
2024-01-18T00:20:16.279Z,20.91
2024-01-18T00:21:18.356Z,22.23
2024-01-18T00:22:22.178Z,18.69
2024-01-18T00:23:24.220Z,20.09
2024-01-18T00:24:26.742Z,19.10
2024-01-18T00:25:28.779Z,20.43
2024-01-18T00:26:31.101Z,19.39
2024-01-18T00:27:33.569Z,19.65
2024-01-18T00:28:35.813Z,19.46
2024-01-18T00:29:38.127Z,17.81
2024-01-18T00:30:40.773Z,20.35
2024-01-18T00:31:42.985Z,20.36
2024-01-18T00:32:45.451Z,20.45
2024-01-18T00:33:47.459Z,19.69
2024-01-18T00:34:49.688Z,19.71
2024-01-18T00:35:51.776Z,19.52
2024-01-18T00:36:54.239Z,22.12
2024-01-18T00:37:56.358Z,21.05
2024-01-18T00:38:59.738Z,18.00
2024-01-18T00:40:02.199Z,21.93
2024-01-18T00:41:05.084Z,20.34
2024-01-18T00:42:07.287Z,23.01
2024-01-18T00:43:09.413Z,20.35
2024-01-18T00:44:11.498Z,18.97
2024-01-18T00:45:16.102Z,21.13
2024-01-18T00:46:18.804Z,19.61
2024-01-18T00:47:21.336Z,20.11
2024-01-18T00:48:23.527Z,21.50
2024-01-18T00:49:28.798Z,22.12
2024-01-18T00:50:32.045Z,20.60
2024-01-18T00:51:34.143Z,24.23
2024-01-18T00:52:38.349Z,21.30
2024-01-18T00:53:40.310Z,20.29
2024-01-18T00:54:42.258Z,20.11
2024-01-18T00:55:44.363Z,22.63
2024-01-18T00:56:47.195Z,24.51
2024-01-18T00:57:49.222Z,26.99
2024-01-18T00:58:52.854Z,18.03
2024-01-18T00:59:55.100Z,17.37
2024-01-18T01:00:57.371Z,20.60
2024-01-18T01:01:59.483Z,22.26
2024-01-18T01:03:01.515Z,18.34
2024-01-18T01:04:05.282Z,23.30
2024-01-18T01:05:08.669Z,23.28
2024-01-18T01:06:13.040Z,22.76
2024-01-18T01:07:15.156Z,22.10
2024-01-18T01:08:17.178Z,21.10
2024-01-18T01:09:20.406Z,19.69
2024-01-18T01:10:22.921Z,18.17
2024-01-18T01:11:24.894Z,20.79
2024-01-18T01:12:26.987Z,22.99
2024-01-18T01:13:29.142Z,23.40
2024-01-18T01:14:31.138Z,21.05
2024-01-18T01:15:33.124Z,23.63
2024-01-18T01:16:35.260Z,22.45
2024-01-18T01:17:37.361Z,27.41
2024-01-18T01:18:40.520Z,23.93
2024-01-18T01:19:42.907Z,22.32
2024-01-18T01:20:45.204Z,23.45
2024-01-18T01:21:47.765Z,23.49
2024-01-18T01:22:49.678Z,20.55
2024-01-18T01:23:51.904Z,25.99
2024-01-18T01:24:53.809Z,24.19
2024-01-18T01:25:56.684Z,22.34
2024-01-18T01:26:58.921Z,24.30
2024-01-18T01:28:00.975Z,22.79
2024-01-18T01:29:05.022Z,25.02
2024-01-18T01:30:11.792Z,22.27
2024-01-18T01:31:14.355Z,21.42
2024-01-18T01:32:17.047Z,20.24
2024-01-18T01:33:19.415Z,25.40
2024-01-18T01:34:21.789Z,24.13
2024-01-18T01:35:27.804Z,24.07
2024-01-18T01:36:30.926Z,22.57
2024-01-18T01:37:34.292Z,21.31
2024-01-18T01:38:36.183Z,24.27
2024-01-18T01:39:38.283Z,23.48
2024-01-18T01:40:40.789Z,27.20
2024-01-18T01:41:43.327Z,24.79
2024-01-18T01:42:45.356Z,22.74
2024-01-18T01:44:00.934Z,22.68
2024-01-18T01:45:04.700Z,27.82
2024-01-18T01:46:06.898Z,24.66
2024-01-18T01:47:08.900Z,26.41
2024-01-18T01:48:11.192Z,22.58
2024-01-18T01:49:14.180Z,23.99
2024-01-18T01:50:17.393Z,25.05
2024-01-18T01:51:20.849Z,24.58
2024-01-18T01:52:24.920Z,23.62
2024-01-18T01:53:26.980Z,23.46
2024-01-18T01:54:30.808Z,26.64
2024-01-18T01:55:33.676Z,23.44
2024-01-18T01:56:37.165Z,23.06
2024-01-18T01:57:39.699Z,23.61
2024-01-18T01:58:42.454Z,23.63
2024-01-18T01:59:44.914Z,26.83
2024-01-18T02:00:47.667Z,26.20
2024-01-18T02:01:50.991Z,24.17
2024-01-18T02:02:53.540Z,22.59
2024-01-18T02:03:56.176Z,22.86
2024-01-18T02:04:58.246Z,27.06
2024-01-18T02:06:02.112Z,27.75
2024-01-18T02:07:05.434Z,24.86
2024-01-18T02:08:07.502Z,29.91
2024-01-18T02:09:11.897Z,28.35
2024-01-18T02:10:17.745Z,25.57
2024-01-18T02:11:20.919Z,25.70
2024-01-18T02:12:24.681Z,24.36
2024-01-18T02:13:30.047Z,25.11
2024-01-18T02:14:32.286Z,23.99
2024-01-18T02:15:35.827Z,25.35
2024-01-18T02:16:38.097Z,26.58
2024-01-18T02:17:40.164Z,25.69
2024-01-18T02:18:42.225Z,26.85
2024-01-18T02:19:44.414Z,28.87
2024-01-18T02:20:47.300Z,27.89
2024-01-18T02:21:49.716Z,27.05
2024-01-18T02:22:53.809Z,29.33
2024-01-18T02:24:02.046Z,28.79
2024-01-18T02:25:25.161Z,31.41
2024-01-18T02:26:27.747Z,27.80
2024-01-18T02:27:29.717Z,29.50
2024-01-18T02:28:31.905Z,25.69
2024-01-18T02:29:33.931Z,31.99
2024-01-18T02:30:36.452Z,34.59
2024-01-18T02:31:39.909Z,31.29
2024-01-18T02:32:41.969Z,31.12
2024-01-18T02:33:45.409Z,35.34
2024-01-18T02:34:47.976Z,35.86
2024-01-18T02:35:51.220Z,33.99
2024-01-18T02:36:56.161Z,36.32
2024-01-18T02:37:58.218Z,36.29
2024-01-18T02:39:00.972Z,33.84
2024-01-18T02:40:03.449Z,34.83
2024-01-18T02:41:06.671Z,32.69
2024-01-18T02:42:08.752Z,37.53
2024-01-18T02:43:10.908Z,35.70
2024-01-18T02:44:14.696Z,33.11
2024-01-18T02:45:16.976Z,36.75
2024-01-18T02:46:20.025Z,31.08
2024-01-18T02:47:23.037Z,37.94
2024-01-18T02:48:25.633Z,34.35
2024-01-18T02:49:27.742Z,32.51
2024-01-18T02:50:29.828Z,33.61
2024-01-18T02:51:32.695Z,39.39
2024-01-18T02:52:34.903Z,36.58
2024-01-18T02:53:37.360Z,35.89
2024-01-18T02:54:39.431Z,37.95
2024-01-18T02:55:41.384Z,39.71
2024-01-18T02:56:43.523Z,32.51
2024-01-18T02:57:45.779Z,38.74
2024-01-18T02:58:48.364Z,35.66
2024-01-18T02:59:50.410Z,35.65
2024-01-18T03:00:53.774Z,35.28
2024-01-18T03:01:57.057Z,35.65
2024-01-18T03:02:59.090Z,35.42
2024-01-18T03:04:01.502Z,39.29
2024-01-18T03:05:04.512Z,37.68
2024-01-18T03:06:06.988Z,36.44
2024-01-18T03:07:10.173Z,39.17
2024-01-18T03:08:12.423Z,34.94
2024-01-18T03:09:14.586Z,36.57
2024-01-18T03:10:17.735Z,35.04
2024-01-18T03:11:20.067Z,39.13
2024-01-18T03:12:22.101Z,35.65
2024-01-18T03:13:24.093Z,38.37
2024-01-18T03:14:26.024Z,40.78
2024-01-18T03:15:28.140Z,41.15
2024-01-18T03:16:32.182Z,39.70
2024-01-18T03:17:34.337Z,36.65
2024-01-18T03:18:36.756Z,35.64
2024-01-18T03:19:38.868Z,39.01
2024-01-18T03:20:40.989Z,40.07
2024-01-18T03:21:43.009Z,41.35
2024-01-18T03:22:46.189Z,40.31
2024-01-18T03:23:48.320Z,41.51
2024-01-18T03:24:50.258Z,42.95
2024-01-18T03:25:53.414Z,39.94
2024-01-18T03:26:55.472Z,39.05
2024-01-18T03:27:58.760Z,39.03
2024-01-18T03:29:00.692Z,39.68
2024-01-18T03:30:03.879Z,39.02
2024-01-18T03:31:09.769Z,42.47
2024-01-18T03:32:11.874Z,34.38
2024-01-18T03:33:14.242Z,39.62
2024-01-18T03:34:16.524Z,38.43
2024-01-18T03:35:20.744Z,38.26
2024-01-18T03:36:23.901Z,45.22
2024-01-18T03:37:26.116Z,40.97
2024-01-18T03:38:28.119Z,42.08
2024-01-18T03:39:35.405Z,43.19
2024-01-18T03:40:38.302Z,40.29
2024-01-18T03:41:40.355Z,38.29
2024-01-18T03:42:42.624Z,42.94
2024-01-18T03:43:44.838Z,36.31
2024-01-18T03:44:46.879Z,46.73
2024-01-18T03:45:48.856Z,38.81
2024-01-18T03:46:51.973Z,41.31
2024-01-18T03:47:54.228Z,36.63
2024-01-18T03:48:56.375Z,38.80
2024-01-18T03:49:59.798Z,38.85
2024-01-18T03:51:03.322Z,39.25
2024-01-18T03:52:05.849Z,40.54
2024-01-18T03:53:07.869Z,37.77
2024-01-18T03:54:09.877Z,45.03
2024-01-18T03:55:12.294Z,40.78
2024-01-18T03:56:15.614Z,42.19
2024-01-18T03:57:17.543Z,42.66
2024-01-18T03:58:19.750Z,38.44
2024-01-18T03:59:21.874Z,39.14
2024-01-18T04:00:25.036Z,38.99
2024-01-18T04:01:35.416Z,41.28
2024-01-18T04:02:36.316Z,41.20
2024-01-18T04:03:38.305Z,38.45
2024-01-18T04:04:40.392Z,40.92
2024-01-18T04:05:42.295Z,37.71
2024-01-18T04:06:44.686Z,41.14
2024-01-18T04:07:46.716Z,38.73
2024-01-18T04:08:48.786Z,36.61
2024-01-18T04:09:50.833Z,43.47
2024-01-18T04:10:53.021Z,41.78
2024-01-18T04:11:54.912Z,40.41
2024-01-18T04:12:57.911Z,40.83
2024-01-18T04:14:02.109Z,43.86
2024-01-18T04:15:06.833Z,40.98
2024-01-18T04:16:09.380Z,41.57
2024-01-18T04:17:11.692Z,43.14
2024-01-18T04:18:14.028Z,44.49
2024-01-18T04:19:16.343Z,44.36
2024-01-18T04:20:19.028Z,43.09
2024-01-18T04:21:22.204Z,38.67
2024-01-18T04:22:24.480Z,43.58
2024-01-18T04:23:27.777Z,39.79
2024-01-18T04:24:31.070Z,43.44
2024-01-18T04:25:33.154Z,42.63
2024-01-18T04:26:35.469Z,42.32
2024-01-18T04:27:37.527Z,43.89
2024-01-18T04:28:39.783Z,43.07
2024-01-18T04:29:41.755Z,42.39
2024-01-18T04:30:43.823Z,42.95
2024-01-18T04:31:47.886Z,43.31
2024-01-18T04:32:51.010Z,41.72
2024-01-18T04:33:55.692Z,40.57
2024-01-18T04:34:58.059Z,41.92
2024-01-18T04:36:00.275Z,43.02
2024-01-18T04:37:02.382Z,42.91
2024-01-18T04:38:04.646Z,40.55
2024-01-18T04:39:06.696Z,43.35
2024-01-18T04:40:10.407Z,47.05
2024-01-18T04:41:12.442Z,40.58
2024-01-18T04:42:15.312Z,45.29
2024-01-18T04:43:18.029Z,39.25
2024-01-18T04:44:21.178Z,46.81
2024-01-18T04:45:23.230Z,42.55
2024-01-18T04:46:26.262Z,46.54
2024-01-18T04:47:28.805Z,42.65
2024-01-18T04:48:33.592Z,44.51
2024-01-18T04:49:35.899Z,43.19
2024-01-18T04:50:38.294Z,38.50
2024-01-18T04:51:40.474Z,42.36
2024-01-18T04:52:42.718Z,45.87
2024-01-18T04:53:44.731Z,43.26
2024-01-18T04:54:47.722Z,40.51
2024-01-18T04:55:50.882Z,44.47
2024-01-18T04:56:53.237Z,43.54
2024-01-18T04:57:55.998Z,43.17
2024-01-18T04:58:58.388Z,43.64
2024-01-18T05:00:00.751Z,45.95
2024-01-18T05:01:03.269Z,42.55
2024-01-18T05:02:05.229Z,45.39
2024-01-18T05:03:07.173Z,48.35
2024-01-18T05:04:11.639Z,41.59
2024-01-18T05:05:14.525Z,45.68
2024-01-18T05:06:17.454Z,49.76
2024-01-18T05:07:19.753Z,44.58
2024-01-18T05:08:21.860Z,49.55
2024-01-18T05:09:23.834Z,48.27
2024-01-18T05:10:26.303Z,48.29
2024-01-18T05:11:28.879Z,47.95
2024-01-18T05:12:32.105Z,46.33
2024-01-18T05:13:36.811Z,49.22
2024-01-18T05:14:42.347Z,45.39
2024-01-18T05:15:44.323Z,49.13
2024-01-18T05:16:46.805Z,49.61
2024-01-18T05:17:50.191Z,44.25
2024-01-18T05:18:52.235Z,46.15
2024-01-18T05:19:54.379Z,46.61
2024-01-18T05:20:56.632Z,49.01
2024-01-18T05:21:58.628Z,48.66
2024-01-18T05:23:00.996Z,52.86
2024-01-18T05:24:03.290Z,50.73
2024-01-18T05:25:05.862Z,54.87
2024-01-18T05:26:08.476Z,45.51
2024-01-18T05:27:10.406Z,49.23
2024-01-18T05:28:13.371Z,45.50
2024-01-18T05:29:15.919Z,44.14
2024-01-18T05:30:18.312Z,51.55
2024-01-18T05:31:20.385Z,51.53
2024-01-18T05:32:22.916Z,49.45
2024-01-18T05:33:24.951Z,55.67
2024-01-18T05:34:27.072Z,57.65
2024-01-18T05:35:29.202Z,54.27
2024-01-18T05:36:31.585Z,47.36
2024-01-18T05:37:33.787Z,54.35
2024-01-18T05:38:40.364Z,54.97
2024-01-18T05:39:39.644Z,55.99
2024-01-18T05:40:42.142Z,52.53
2024-01-18T05:41:44.061Z,56.06
2024-01-18T05:42:45.979Z,53.06
2024-01-18T05:43:48.857Z,51.98
2024-01-18T05:44:51.589Z,53.41
2024-01-18T05:45:54.373Z,59.86
2024-01-18T05:46:56.627Z,56.24
2024-01-18T05:47:58.571Z,57.47
2024-01-18T05:49:00.559Z,58.86
2024-01-18T05:50:05.745Z,58.96
2024-01-18T05:51:08.150Z,54.29
2024-01-18T05:52:11.211Z,51.88
2024-01-18T05:53:13.380Z,48.23
2024-01-18T05:54:15.405Z,53.73
2024-01-18T05:55:17.480Z,58.74
2024-01-18T05:56:19.791Z,57.67
2024-01-18T05:57:21.811Z,56.65
2024-01-18T05:58:23.755Z,50.10
2024-01-18T05:59:27.128Z,54.87
2024-01-18T06:00:29.319Z,53.38
2024-01-18T06:01:31.545Z,49.53
2024-01-18T06:02:34.167Z,45.80
2024-01-18T06:03:36.098Z,50.58
2024-01-18T06:04:38.142Z,47.79
2024-01-18T06:05:40.303Z,45.51
2024-01-18T06:06:45.698Z,47.01
2024-01-18T06:07:47.868Z,48.75
2024-01-18T06:08:49.921Z,46.79
2024-01-18T06:09:51.838Z,48.47
2024-01-18T06:10:54.319Z,51.70
2024-01-18T06:11:56.317Z,47.17
2024-01-18T06:12:58.359Z,42.13
2024-01-18T06:14:00.341Z,42.95
2024-01-18T06:15:02.482Z,43.48
2024-01-18T06:16:06.448Z,45.18
2024-01-18T06:17:08.377Z,48.71
2024-01-18T06:18:10.436Z,46.07
2024-01-18T06:19:12.610Z,44.29
2024-01-18T06:20:15.729Z,45.91
2024-01-18T06:21:18.059Z,42.41
2024-01-18T06:22:20.113Z,44.24
2024-01-18T06:23:22.012Z,38.07
2024-01-18T06:24:23.959Z,38.99
2024-01-18T06:25:25.923Z,43.31
2024-01-18T06:26:28.844Z,45.02
2024-01-18T06:27:30.976Z,40.17
2024-01-18T06:28:33.296Z,45.29
2024-01-18T06:29:35.416Z,37.57
2024-01-18T06:30:38.424Z,38.88
2024-01-18T06:31:40.476Z,39.39
2024-01-18T06:32:45.370Z,38.79
2024-01-18T06:33:47.701Z,39.51
2024-01-18T06:34:49.752Z,37.99
2024-01-18T06:35:51.905Z,41.25
2024-01-18T06:36:54.166Z,35.61
2024-01-18T06:37:56.056Z,37.73
2024-01-18T06:38:57.993Z,34.91
2024-01-18T06:39:59.895Z,32.73
2024-01-18T06:41:01.797Z,39.72
2024-01-18T06:42:08.205Z,36.16
2024-01-18T06:43:12.035Z,35.24
2024-01-18T06:44:14.230Z,34.27
2024-01-18T06:45:16.292Z,31.01
2024-01-18T06:46:20.367Z,32.30
2024-01-18T06:47:22.390Z,29.36
2024-01-18T06:48:25.588Z,27.91
2024-01-18T06:49:27.655Z,30.08
2024-01-18T06:50:30.311Z,47.65
2024-01-18T06:51:32.358Z,41.11
2024-01-18T06:52:34.393Z,31.68
2024-01-18T06:53:36.693Z,43.04
2024-01-18T06:54:38.859Z,40.22
2024-01-18T06:55:40.888Z,36.42
2024-01-18T06:56:45.648Z,41.07
2024-01-18T06:57:49.824Z,26.81
2024-01-18T06:58:52.992Z,26.48
2024-01-18T06:59:56.442Z,31.10
2024-01-18T07:00:58.950Z,36.34
2024-01-18T07:02:01.262Z,33.26
2024-01-18T07:03:09.142Z,36.09
2024-01-18T07:04:12.042Z,42.29
2024-01-18T07:05:15.861Z,33.38
2024-01-18T07:06:18.239Z,36.01
2024-01-18T07:07:20.302Z,44.74
2024-01-18T07:08:23.769Z,36.97
2024-01-18T07:09:25.825Z,41.84
2024-01-18T07:10:29.229Z,54.71
2024-01-18T07:11:31.128Z,35.64
2024-01-18T07:12:34.006Z,31.62
2024-01-18T07:13:36.023Z,30.84
2024-01-18T07:14:39.211Z,34.33
2024-01-18T07:15:42.192Z,34.18
2024-01-18T07:16:44.652Z,36.87
2024-01-18T07:17:47.089Z,41.34
2024-01-18T07:18:49.422Z,70.13
2024-01-18T07:19:57.786Z,41.65
2024-01-18T07:21:00.226Z,32.56
2024-01-18T07:22:04.387Z,28.16
2024-01-18T07:23:06.345Z,31.09
2024-01-18T07:24:10.321Z,36.18
2024-01-18T07:25:18.374Z,38.72
2024-01-18T07:26:19.837Z,38.53
2024-01-18T07:27:23.162Z,32.28
2024-01-18T07:28:27.676Z,32.56
2024-01-18T07:29:30.852Z,31.66
2024-01-18T07:30:36.316Z,31.63
2024-01-18T07:31:38.340Z,36.48
2024-01-18T07:32:41.102Z,30.84
2024-01-18T07:33:43.279Z,28.97
2024-01-18T07:34:45.979Z,32.02
2024-01-18T07:35:48.568Z,29.19
2024-01-18T07:36:50.706Z,27.19
2024-01-18T07:37:52.794Z,30.10
2024-01-18T07:38:54.710Z,21.51
2024-01-18T07:39:56.591Z,19.55
2024-01-18T07:40:59.639Z,23.18
2024-01-18T07:42:01.856Z,23.24
2024-01-18T07:43:04.231Z,27.63
2024-01-18T07:44:06.685Z,24.43
2024-01-18T07:45:09.145Z,24.19
2024-01-18T07:46:11.987Z,20.80
2024-01-18T07:47:15.907Z,24.09
2024-01-18T07:48:18.302Z,23.01
2024-01-18T07:49:23.851Z,25.61
2024-01-18T07:50:34.902Z,23.16
2024-01-18T07:51:31.335Z,24.48
2024-01-18T07:52:33.569Z,24.13
2024-01-18T07:53:35.528Z,22.85
2024-01-18T07:54:37.502Z,25.19
2024-01-18T07:55:41.884Z,20.35
2024-01-18T07:56:45.797Z,23.44
2024-01-18T07:57:47.743Z,22.85
2024-01-18T07:58:49.808Z,23.03
2024-01-18T07:59:51.725Z,24.24
2024-01-18T08:00:53.842Z,25.86
2024-01-18T08:01:56.176Z,21.80
2024-01-18T08:02:58.158Z,23.97
2024-01-18T08:04:00.284Z,25.84
2024-01-18T08:05:06.132Z,24.89
2024-01-18T08:06:11.551Z,26.87
2024-01-18T08:07:16.798Z,23.92
2024-01-18T08:08:18.824Z,29.12
2024-01-18T08:09:20.901Z,21.83
2024-01-18T08:10:23.951Z,21.21
2024-01-18T08:11:25.846Z,24.20
2024-01-18T08:12:27.837Z,24.32
2024-01-18T08:13:29.899Z,26.04
2024-01-18T08:14:31.832Z,22.67
2024-01-18T08:15:33.838Z,24.03
2024-01-18T08:16:36.147Z,21.82
2024-01-18T08:17:38.326Z,22.73
2024-01-18T08:18:40.580Z,20.13
2024-01-18T08:19:43.147Z,22.75
2024-01-18T08:20:45.619Z,24.63
2024-01-18T08:21:47.667Z,23.55
2024-01-18T08:22:49.779Z,19.85
2024-01-18T08:23:51.771Z,24.56
2024-01-18T08:24:53.784Z,22.19
2024-01-18T08:25:55.748Z,24.13
2024-01-18T08:26:58.052Z,23.53
2024-01-18T08:27:59.934Z,22.39
2024-01-18T08:29:02.004Z,20.62
2024-01-18T08:30:05.892Z,26.23
2024-01-18T08:31:07.860Z,26.87
2024-01-18T08:32:09.780Z,24.45
2024-01-18T08:33:11.726Z,21.08
2024-01-18T08:34:13.857Z,25.45
2024-01-18T08:35:15.768Z,21.22
2024-01-18T08:36:18.341Z,23.86
2024-01-18T08:37:20.580Z,21.25
2024-01-18T08:38:22.772Z,22.80
2024-01-18T08:39:24.883Z,26.27
2024-01-18T08:40:27.102Z,24.41
2024-01-18T08:41:29.123Z,27.14
2024-01-18T08:42:31.641Z,21.43
2024-01-18T08:43:33.783Z,24.95
2024-01-18T08:44:35.812Z,21.53
2024-01-18T08:45:38.124Z,21.86
2024-01-18T08:46:42.098Z,20.80
2024-01-18T08:47:44.159Z,20.86
2024-01-18T08:48:46.153Z,23.24
2024-01-18T08:49:49.055Z,20.31
2024-01-18T08:50:52.861Z,18.28
2024-01-18T08:51:55.578Z,19.02
2024-01-18T08:52:57.746Z,19.48
2024-01-18T08:53:59.860Z,19.99
2024-01-18T08:55:02.196Z,17.73
2024-01-18T08:56:04.658Z,23.41
2024-01-18T08:57:06.784Z,21.01
2024-01-18T08:58:08.946Z,17.11
2024-01-18T08:59:11.382Z,18.35
2024-01-18T09:00:15.391Z,18.61
2024-01-18T09:01:17.696Z,19.52
2024-01-18T09:02:23.814Z,18.70
2024-01-18T09:03:23.830Z,20.66
2024-01-18T09:04:26.317Z,18.97
2024-01-18T09:05:28.581Z,22.63
2024-01-18T09:06:31.151Z,21.48
2024-01-18T09:07:33.236Z,20.55
2024-01-18T09:08:35.394Z,23.31
2024-01-18T09:09:37.721Z,21.61
2024-01-18T09:10:40.091Z,20.19
2024-01-18T09:11:42.216Z,22.03
2024-01-18T09:12:44.289Z,22.96
2024-01-18T09:13:46.268Z,20.37
2024-01-18T09:14:48.398Z,18.33
2024-01-18T09:15:50.572Z,20.47
2024-01-18T09:16:52.712Z,20.98
2024-01-18T09:17:54.666Z,19.39
2024-01-18T09:19:06.332Z,21.04
2024-01-18T09:20:01.024Z,22.18
2024-01-18T09:21:03.732Z,18.23
2024-01-18T09:22:05.742Z,21.31
2024-01-18T09:23:13.094Z,21.49
2024-01-18T09:24:12.498Z,18.79
2024-01-18T09:25:14.633Z,21.85
2024-01-18T09:26:17.545Z,23.47
2024-01-18T09:27:19.565Z,26.84
2024-01-18T09:28:21.616Z,24.22
2024-01-18T09:29:23.707Z,21.17
2024-01-18T09:30:26.741Z,19.37
2024-01-18T09:31:38.089Z,17.77
2024-01-18T09:32:33.405Z,23.76
2024-01-18T09:33:36.503Z,18.42
2024-01-18T09:34:38.677Z,21.41
2024-01-18T09:35:40.884Z,21.55
2024-01-18T09:36:43.240Z,20.29
2024-01-18T09:37:49.311Z,22.00
2024-01-18T09:38:51.793Z,21.51
2024-01-18T09:39:54.514Z,21.06
2024-01-18T09:41:02.789Z,22.26
2024-01-18T09:42:08.582Z,22.61
2024-01-18T09:43:11.948Z,22.97
2024-01-18T09:44:15.136Z,25.28
2024-01-18T09:45:21.038Z,24.16
2024-01-18T09:46:24.075Z,24.17
2024-01-18T09:47:26.496Z,21.35
2024-01-18T09:48:28.539Z,25.31
2024-01-18T09:49:36.364Z,23.21
2024-01-18T09:50:42.308Z,21.43
2024-01-18T09:51:45.236Z,22.09
2024-01-18T09:52:47.791Z,22.46
2024-01-18T09:53:52.062Z,18.67
2024-01-18T09:54:54.119Z,21.59
2024-01-18T09:55:59.828Z,20.96
2024-01-18T09:57:02.000Z,20.28
2024-01-18T09:58:07.834Z,20.90
2024-01-18T09:59:15.471Z,20.26
2024-01-18T10:00:21.533Z,21.50
2024-01-18T10:01:24.348Z,22.76
2024-01-18T10:02:27.082Z,21.10
2024-01-18T10:03:29.135Z,19.39
2024-01-18T10:04:31.700Z,20.17
2024-01-18T10:05:34.110Z,19.83
2024-01-18T10:06:37.622Z,22.54
2024-01-18T10:07:40.812Z,23.79
2024-01-18T10:08:43.375Z,19.05
2024-01-18T10:09:45.378Z,17.98
2024-01-18T10:10:47.714Z,21.05
2024-01-18T10:11:49.862Z,20.25
2024-01-18T10:12:51.758Z,20.17
2024-01-18T10:13:55.938Z,23.41
2024-01-18T10:14:57.972Z,21.73
2024-01-18T10:15:59.910Z,20.25
2024-01-18T10:17:02.187Z,20.59
2024-01-18T10:18:07.347Z,23.22
2024-01-18T10:19:12.047Z,20.94
2024-01-18T10:20:14.790Z,18.52
2024-01-18T10:21:16.807Z,20.65
2024-01-18T10:22:20.690Z,21.57
2024-01-18T10:23:22.807Z,22.33
2024-01-18T10:24:24.806Z,24.09
2024-01-18T10:25:27.739Z,21.75
2024-01-18T10:26:31.819Z,20.31
2024-01-18T10:27:34.489Z,21.81
2024-01-18T10:28:36.942Z,22.44
2024-01-18T10:29:39.176Z,20.97
2024-01-18T10:30:42.423Z,19.21
2024-01-18T10:31:44.513Z,20.46
2024-01-18T10:32:46.969Z,21.85
2024-01-18T10:33:49.275Z,21.47
2024-01-18T10:34:51.382Z,22.93
2024-01-18T10:35:53.399Z,22.90
2024-01-18T10:36:58.328Z,20.54
2024-01-18T10:38:02.703Z,25.27
2024-01-18T10:39:17.739Z,22.61
2024-01-18T10:40:21.889Z,19.49
2024-01-18T10:41:24.010Z,20.05
2024-01-18T10:42:26.039Z,23.51
2024-01-18T10:43:32.835Z,20.97
2024-01-18T10:44:44.206Z,21.89
2024-01-18T10:45:46.528Z,20.90
2024-01-18T10:46:48.940Z,21.57
2024-01-18T10:47:51.505Z,23.37
2024-01-18T10:48:54.020Z,20.47
2024-01-18T10:49:58.653Z,24.34
2024-01-18T10:51:04.351Z,23.63
2024-01-18T10:52:07.378Z,22.33
2024-01-18T10:53:10.532Z,21.27
2024-01-18T10:54:22.018Z,21.67
2024-01-18T10:55:20.433Z,22.87
2024-01-18T10:56:22.908Z,22.36
2024-01-18T10:57:25.381Z,21.06
2024-01-18T10:58:27.662Z,24.49
2024-01-18T10:59:30.611Z,21.31
2024-01-18T11:00:33.110Z,22.65
2024-01-18T11:01:36.431Z,22.46
2024-01-18T11:02:38.382Z,22.00
2024-01-18T11:03:41.124Z,22.73
2024-01-18T11:04:46.404Z,21.56
2024-01-18T11:05:48.773Z,21.74
2024-01-18T11:06:51.227Z,24.01
2024-01-18T11:07:53.892Z,24.89
2024-01-18T11:08:57.379Z,22.03
2024-01-18T11:10:00.574Z,22.19
2024-01-18T11:11:04.729Z,21.79
2024-01-18T11:12:08.090Z,23.76
2024-01-18T11:13:11.166Z,21.56
2024-01-18T11:14:14.032Z,23.98
2024-01-18T11:15:17.206Z,21.04
2024-01-18T11:16:20.620Z,22.55
2024-01-18T11:17:23.275Z,21.51
2024-01-18T11:18:26.564Z,25.15
2024-01-18T11:19:45.640Z,22.73
2024-01-18T11:21:00.676Z,25.22
2024-01-18T11:22:04.080Z,25.98
2024-01-18T11:23:06.000Z,27.79
2024-01-18T11:24:09.357Z,22.73
2024-01-18T11:25:14.586Z,24.66
2024-01-18T11:26:20.960Z,23.45
2024-01-18T11:27:24.439Z,25.96
2024-01-18T11:28:27.815Z,25.66
2024-01-18T11:29:33.592Z,22.67
2024-01-18T11:30:37.535Z,27.00
2024-01-18T11:31:46.817Z,24.58
2024-01-18T11:32:48.869Z,26.34
2024-01-18T11:33:50.987Z,24.22
2024-01-18T11:35:08.523Z,23.66
2024-01-18T11:37:24.932Z,33.20
2024-01-18T11:38:29.029Z,26.53
2024-01-18T11:39:53.000Z,25.36
2024-01-18T11:40:58.459Z,25.91
2024-01-18T11:42:00.502Z,22.85
2024-01-18T11:43:02.580Z,24.43
2024-01-18T11:44:04.838Z,23.51
2024-01-18T11:45:16.048Z,25.18
2024-01-18T11:46:37.604Z,25.07
2024-01-18T11:47:40.152Z,25.47
2024-01-18T11:48:42.401Z,26.96
2024-01-18T11:49:44.894Z,24.55
2024-01-18T11:50:47.465Z,26.44
2024-01-18T11:51:51.298Z,26.97
2024-01-18T11:52:53.622Z,26.03
2024-01-18T11:53:59.649Z,24.99
2024-01-18T11:55:03.504Z,25.36
2024-01-18T11:56:08.646Z,26.37
2024-01-18T11:57:12.414Z,23.95
2024-01-18T11:58:17.214Z,26.95
2024-01-18T11:59:19.326Z,25.64
2024-01-18T12:00:22.644Z,22.37
2024-01-18T12:01:25.574Z,24.59
2024-01-18T12:02:28.199Z,26.29
2024-01-18T12:03:30.265Z,23.44
2024-01-18T12:04:32.354Z,26.93
2024-01-18T12:05:35.781Z,23.00
2024-01-18T12:06:38.209Z,23.66
2024-01-18T12:07:41.332Z,21.48
2024-01-18T12:08:44.905Z,24.54
2024-01-18T12:09:46.991Z,24.96
2024-01-18T12:10:50.195Z,21.95
2024-01-18T12:11:52.203Z,23.46
2024-01-18T12:12:55.709Z,23.39
2024-01-18T12:13:57.986Z,21.75
2024-01-18T12:15:00.196Z,25.07
2024-01-18T12:16:04.529Z,21.70
2024-01-18T12:17:08.055Z,23.23
2024-01-18T12:18:10.019Z,24.42
2024-01-18T12:19:12.122Z,23.23
2024-01-18T12:20:19.788Z,23.61
2024-01-18T12:21:22.022Z,23.28
2024-01-18T12:22:24.229Z,22.15
2024-01-18T12:23:26.157Z,21.91
2024-01-18T12:24:28.907Z,22.47
2024-01-18T12:25:32.517Z,24.00
2024-01-18T12:26:34.545Z,24.11
2024-01-18T12:27:37.103Z,24.75
2024-01-18T12:28:39.457Z,26.13
2024-01-18T12:29:42.201Z,25.66
2024-01-18T12:30:44.752Z,24.25
2024-01-18T12:31:47.311Z,22.59
2024-01-18T12:32:50.204Z,22.81
2024-01-18T12:33:54.062Z,26.76
2024-01-18T12:34:56.559Z,27.70
2024-01-18T12:35:59.436Z,24.14
2024-01-18T12:37:04.058Z,24.34
2024-01-18T12:38:06.226Z,22.16
2024-01-18T12:39:08.132Z,25.74
2024-01-18T12:40:11.571Z,21.88
2024-01-18T12:41:13.644Z,24.66
2024-01-18T12:42:18.444Z,23.21
2024-01-18T12:43:22.622Z,23.83
2024-01-18T12:44:24.956Z,24.37
2024-01-18T12:45:31.255Z,24.57
2024-01-18T12:46:36.304Z,26.74
2024-01-18T12:47:38.705Z,24.27
2024-01-18T12:48:41.428Z,25.17
2024-01-18T12:49:44.496Z,22.48
2024-01-18T12:50:47.417Z,27.31
2024-01-18T12:51:57.605Z,22.47
2024-01-18T12:53:03.480Z,22.02
2024-01-18T12:54:04.937Z,21.87
2024-01-18T12:55:07.373Z,27.59
2024-01-18T12:56:12.612Z,26.45
2024-01-18T12:57:14.879Z,24.04
2024-01-18T12:58:17.092Z,22.64
2024-01-18T12:59:19.256Z,24.77
2024-01-18T13:00:22.434Z,26.74
2024-01-18T13:01:30.700Z,24.59
2024-01-18T13:02:33.085Z,23.76
2024-01-18T13:03:35.303Z,23.49
2024-01-18T13:04:37.508Z,23.03
2024-01-18T13:05:44.952Z,21.81
2024-01-18T13:06:56.906Z,24.38
2024-01-18T13:07:55.503Z,26.51
2024-01-18T13:08:57.636Z,24.34
2024-01-18T13:10:00.228Z,24.84
2024-01-18T13:11:02.627Z,22.85
2024-01-18T13:12:06.109Z,24.55
2024-01-18T13:13:09.201Z,23.82
2024-01-18T13:14:11.242Z,24.13
2024-01-18T13:15:14.980Z,24.49
2024-01-18T13:16:17.494Z,22.71
2024-01-18T13:17:19.616Z,24.63
2024-01-18T13:18:21.868Z,25.77
2024-01-18T13:19:25.078Z,25.71
2024-01-18T13:20:28.043Z,27.35
2024-01-18T13:21:30.796Z,25.57
2024-01-18T13:22:33.017Z,26.29
2024-01-18T13:23:35.012Z,26.44
2024-01-18T13:24:37.149Z,25.11
2024-01-18T13:25:39.536Z,24.06
2024-01-18T13:26:42.243Z,25.47
2024-01-18T13:27:44.393Z,25.71
2024-01-18T13:28:46.373Z,24.28
2024-01-18T13:29:48.561Z,24.20
2024-01-18T13:30:50.700Z,29.05
2024-01-18T13:31:52.677Z,24.92
2024-01-18T13:32:54.876Z,25.01